sensor_id;sensor_type;location;lat;lon;timestamp;P1;durP1;ratioP1;P2;durP2;ratioP2
21038;SDS011;10678;51.002;4.786;2023-08-30T00:00:32;8.82;;;4.13;;
21038;SDS011;10678;51.002;4.786;2023-08-30T00:02:58;9.73;;;3.85;;
21038;SDS011;10678;51.002;4.786;2023-08-30T00:05:23;10.70;;;4.18;;
21038;SDS011;10678;51.002;4.786;2023-08-30T00:07:49;7.28;;;3.60;;
21038;SDS011;10678;51.002;4.786;2023-08-30T00:10:14;8.05;;;3.50;;
21038;SDS011;10678;51.002;4.786;2023-08-30T00:12:40;8.90;;;4.47;;
21038;SDS011;10678;51.002;4.786;2023-08-30T00:15:06;8.85;;;3.80;;
21038;SDS011;10678;51.002;4.786;2023-08-30T00:17:32;9.55;;;4.10;;
21038;SDS011;10678;51.002;4.786;2023-08-30T00:19:58;7.63;;;4.13;;
21038;SDS011;10678;51.002;4.786;2023-08-30T00:22:24;6.05;;;3.30;;
21038;SDS011;10678;51.002;4.786;2023-08-30T00:24:52;9.30;;;3.60;;
21038;SDS011;10678;51.002;4.786;2023-08-30T00:27:18;8.88;;;3.72;;
21038;SDS011;10678;51.002;4.786;2023-08-30T00:29:45;8.60;;;3.88;;
21038;SDS011;10678;51.002;4.786;2023-08-30T00:32:11;9.90;;;4.18;;
21038;SDS011;10678;51.002;4.786;2023-08-30T00:34:37;10.02;;;4.18;;
21038;SDS011;10678;51.002;4.786;2023-08-30T00:37:02;9.20;;;4.60;;
21038;SDS011;10678;51.002;4.786;2023-08-30T00:39:28;6.80;;;4.45;;
21038;SDS011;10678;51.002;4.786;2023-08-30T00:41:54;9.30;;;5.03;;
21038;SDS011;10678;51.002;4.786;2023-08-30T00:44:20;8.18;;;5.28;;
21038;SDS011;10678;51.002;4.786;2023-08-30T00:46:45;12.20;;;5.07;;
21038;SDS011;10678;51.002;4.786;2023-08-30T00:49:11;9.07;;;5.45;;
21038;SDS011;10678;51.002;4.786;2023-08-30T00:51:37;11.88;;;4.70;;
21038;SDS011;10678;51.002;4.786;2023-08-30T00:54:03;11.40;;;3.75;;
21038;SDS011;10678;51.002;4.786;2023-08-30T00:56:29;10.75;;;4.80;;
21038;SDS011;10678;51.002;4.786;2023-08-30T00:58:56;9.52;;;4.90;;
21038;SDS011;10678;51.002;4.786;2023-08-30T01:01:21;10.20;;;5.40;;
21038;SDS011;10678;51.002;4.786;2023-08-30T01:03:47;12.73;;;5.63;;
21038;SDS011;10678;51.002;4.786;2023-08-30T01:06:13;11.55;;;5.72;;
21038;SDS011;10678;51.002;4.786;2023-08-30T01:08:39;10.73;;;5.55;;
21038;SDS011;10678;51.002;4.786;2023-08-30T01:14:15;8.38;;;5.40;;
21038;SDS011;10678;51.002;4.786;2023-08-30T01:16:50;13.50;;;6.43;;
21038;SDS011;10678;51.002;4.786;2023-08-30T01:21:56;9.82;;;5.35;;
21038;SDS011;10678;51.002;4.786;2023-08-30T01:24:32;10.07;;;4.63;;
21038;SDS011;10678;51.002;4.786;2023-08-30T01:27:10;11.80;;;5.60;;
21038;SDS011;10678;51.002;4.786;2023-08-30T01:29:37;10.40;;;5.50;;
21038;SDS011;10678;51.002;4.786;2023-08-30T01:32:05;10.10;;;5.07;;
21038;SDS011;10678;51.002;4.786;2023-08-30T01:34:34;8.50;;;4.88;;
21038;SDS011;10678;51.002;4.786;2023-08-30T01:37:02;8.88;;;4.32;;
21038;SDS011;10678;51.002;4.786;2023-08-30T01:39:30;7.90;;;4.22;;
21038;SDS011;10678;51.002;4.786;2023-08-30T01:41:56;9.02;;;4.43;;
21038;SDS011;10678;51.002;4.786;2023-08-30T01:44:30;8.90;;;4.75;;
21038;SDS011;10678;51.002;4.786;2023-08-30T01:46:56;9.25;;;4.18;;
21038;SDS011;10678;51.002;4.786;2023-08-30T01:49:23;9.50;;;4.05;;
21038;SDS011;10678;51.002;4.786;2023-08-30T01:51:50;10.73;;;4.20;;
21038;SDS011;10678;51.002;4.786;2023-08-30T01:54:17;10.32;;;4.40;;
21038;SDS011;10678;51.002;4.786;2023-08-30T01:56:44;8.25;;;4.00;;
21038;SDS011;10678;51.002;4.786;2023-08-30T01:59:11;10.02;;;3.97;;
21038;SDS011;10678;51.002;4.786;2023-08-30T02:01:36;10.85;;;4.10;;
21038;SDS011;10678;51.002;4.786;2023-08-30T02:04:02;7.55;;;3.90;;
21038;SDS011;10678;51.002;4.786;2023-08-30T02:06:50;8.07;;;3.67;;
21038;SDS011;10678;51.002;4.786;2023-08-30T02:09:24;10.13;;;4.10;;
21038;SDS011;10678;51.002;4.786;2023-08-30T02:11:55;8.65;;;3.83;;
21038;SDS011;10678;51.002;4.786;2023-08-30T02:14:22;8.32;;;3.80;;
21038;SDS011;10678;51.002;4.786;2023-08-30T02:16:51;8.38;;;4.10;;
21038;SDS011;10678;51.002;4.786;2023-08-30T02:19:20;7.30;;;4.00;;
21038;SDS011;10678;51.002;4.786;2023-08-30T02:21:46;9.35;;;4.45;;
21038;SDS011;10678;51.002;4.786;2023-08-30T02:24:12;9.50;;;4.05;;
21038;SDS011;10678;51.002;4.786;2023-08-30T02:26:38;7.60;;;3.67;;
21038;SDS011;10678;51.002;4.786;2023-08-30T02:29:04;8.95;;;3.97;;
21038;SDS011;10678;51.002;4.786;2023-08-30T02:31:29;7.45;;;4.32;;
21038;SDS011;10678;51.002;4.786;2023-08-30T02:33:55;7.72;;;4.55;;
21038;SDS011;10678;51.002;4.786;2023-08-30T02:36:21;9.32;;;4.60;;
21038;SDS011;10678;51.002;4.786;2023-08-30T02:38:46;7.70;;;4.20;;
21038;SDS011;10678;51.002;4.786;2023-08-30T02:41:12;9.38;;;5.00;;
21038;SDS011;10678;51.002;4.786;2023-08-30T02:43:38;7.45;;;4.13;;
21038;SDS011;10678;51.002;4.786;2023-08-30T02:46:03;7.65;;;4.10;;
21038;SDS011;10678;51.002;4.786;2023-08-30T02:48:30;8.95;;;4.38;;
21038;SDS011;10678;51.002;4.786;2023-08-30T02:50:56;7.38;;;4.05;;
21038;SDS011;10678;51.002;4.786;2023-08-30T02:53:22;7.57;;;3.88;;
21038;SDS011;10678;51.002;4.786;2023-08-30T02:55:48;9.10;;;3.80;;
21038;SDS011;10678;51.002;4.786;2023-08-30T02:58:14;7.35;;;3.38;;
21038;SDS011;10678;51.002;4.786;2023-08-30T03:00:40;6.60;;;3.55;;
21038;SDS011;10678;51.002;4.786;2023-08-30T03:03:05;7.10;;;3.67;;
21038;SDS011;10678;51.002;4.786;2023-08-30T03:05:31;7.00;;;3.97;;
21038;SDS011;10678;51.002;4.786;2023-08-30T03:07:57;7.10;;;3.88;;
21038;SDS011;10678;51.002;4.786;2023-08-30T03:10:22;8.38;;;3.90;;
21038;SDS011;10678;51.002;4.786;2023-08-30T03:12:48;11.25;;;3.97;;
21038;SDS011;10678;51.002;4.786;2023-08-30T03:15:13;8.07;;;3.20;;
21038;SDS011;10678;51.002;4.786;2023-08-30T03:17:39;9.43;;;3.63;;
21038;SDS011;10678;51.002;4.786;2023-08-30T03:20:05;9.23;;;3.90;;
21038;SDS011;10678;51.002;4.786;2023-08-30T03:22:31;11.45;;;3.75;;
21038;SDS011;10678;51.002;4.786;2023-08-30T03:24:57;11.13;;;4.32;;
21038;SDS011;10678;51.002;4.786;2023-08-30T03:27:23;10.35;;;3.80;;
21038;SDS011;10678;51.002;4.786;2023-08-30T03:29:49;7.07;;;3.45;;
21038;SDS011;10678;51.002;4.786;2023-08-30T03:32:16;7.97;;;3.80;;
21038;SDS011;10678;51.002;4.786;2023-08-30T03:34:45;12.60;;;4.00;;
21038;SDS011;10678;51.002;4.786;2023-08-30T03:37:12;9.23;;;4.47;;
21038;SDS011;10678;51.002;4.786;2023-08-30T03:39:41;9.60;;;4.60;;
21038;SDS011;10678;51.002;4.786;2023-08-30T03:42:08;11.45;;;4.25;;
21038;SDS011;10678;51.002;4.786;2023-08-30T03:44:33;10.80;;;3.83;;
21038;SDS011;10678;51.002;4.786;2023-08-30T03:46:59;8.55;;;4.10;;
21038;SDS011;10678;51.002;4.786;2023-08-30T03:49:25;9.40;;;4.25;;
21038;SDS011;10678;51.002;4.786;2023-08-30T03:51:51;10.38;;;4.38;;
21038;SDS011;10678;51.002;4.786;2023-08-30T03:54:16;8.52;;;3.60;;
21038;SDS011;10678;51.002;4.786;2023-08-30T03:56:43;12.80;;;4.47;;
21038;SDS011;10678;51.002;4.786;2023-08-30T03:59:09;10.40;;;4.00;;
21038;SDS011;10678;51.002;4.786;2023-08-30T04:01:35;12.07;;;4.90;;
21038;SDS011;10678;51.002;4.786;2023-08-30T04:04:00;10.82;;;4.45;;
21038;SDS011;10678;51.002;4.786;2023-08-30T04:06:26;9.20;;;4.82;;
21038;SDS011;10678;51.002;4.786;2023-08-30T04:08:52;12.90;;;4.80;;
21038;SDS011;10678;51.002;4.786;2023-08-30T04:11:17;10.05;;;4.85;;
21038;SDS011;10678;51.002;4.786;2023-08-30T04:13:43;10.18;;;4.47;;
21038;SDS011;10678;51.002;4.786;2023-08-30T04:16:08;13.55;;;5.40;;
21038;SDS011;10678;51.002;4.786;2023-08-30T04:18:34;12.70;;;5.68;;
21038;SDS011;10678;51.002;4.786;2023-08-30T04:21:00;11.07;;;5.25;;
21038;SDS011;10678;51.002;4.786;2023-08-30T04:23:27;9.93;;;5.22;;
21038;SDS011;10678;51.002;4.786;2023-08-30T04:25:54;11.60;;;5.57;;
21038;SDS011;10678;51.002;4.786;2023-08-30T04:28:20;11.90;;;5.35;;
21038;SDS011;10678;51.002;4.786;2023-08-30T04:30:46;13.27;;;5.43;;
21038;SDS011;10678;51.002;4.786;2023-08-30T04:33:12;13.55;;;5.53;;
21038;SDS011;10678;51.002;4.786;2023-08-30T04:35:37;12.20;;;5.70;;
21038;SDS011;10678;51.002;4.786;2023-08-30T04:38:04;10.80;;;5.80;;
21038;SDS011;10678;51.002;4.786;2023-08-30T04:40:29;11.70;;;5.00;;
21038;SDS011;10678;51.002;4.786;2023-08-30T04:42:56;9.60;;;4.88;;
21038;SDS011;10678;51.002;4.786;2023-08-30T04:45:22;13.90;;;5.68;;
21038;SDS011;10678;51.002;4.786;2023-08-30T04:47:48;14.25;;;5.25;;
21038;SDS011;10678;51.002;4.786;2023-08-30T04:50:14;12.88;;;4.72;;
21038;SDS011;10678;51.002;4.786;2023-08-30T04:52:39;8.95;;;4.85;;
21038;SDS011;10678;51.002;4.786;2023-08-30T04:55:05;11.55;;;5.18;;
21038;SDS011;10678;51.002;4.786;2023-08-30T04:57:31;13.13;;;5.38;;
21038;SDS011;10678;51.002;4.786;2023-08-30T04:59:57;10.65;;;4.88;;
21038;SDS011;10678;51.002;4.786;2023-08-30T05:02:23;12.35;;;5.03;;
21038;SDS011;10678;51.002;4.786;2023-08-30T05:04:48;10.35;;;4.70;;
21038;SDS011;10678;51.002;4.786;2023-08-30T05:07:14;11.02;;;5.07;;
21038;SDS011;10678;51.002;4.786;2023-08-30T05:09:40;8.07;;;4.13;;
21038;SDS011;10678;51.002;4.786;2023-08-30T05:12:06;9.73;;;4.63;;
21038;SDS011;10678;51.002;4.786;2023-08-30T05:14:32;9.30;;;4.25;;
21038;SDS011;10678;51.002;4.786;2023-08-30T05:16:58;11.00;;;4.63;;
21038;SDS011;10678;51.002;4.786;2023-08-30T05:19:23;10.88;;;5.13;;
21038;SDS011;10678;51.002;4.786;2023-08-30T05:21:49;9.23;;;4.15;;
21038;SDS011;10678;51.002;4.786;2023-08-30T05:24:18;7.90;;;3.85;;
21038;SDS011;10678;51.002;4.786;2023-08-30T05:26:43;10.70;;;4.25;;
21038;SDS011;10678;51.002;4.786;2023-08-30T05:29:11;10.55;;;6.03;;
21038;SDS011;10678;51.002;4.786;2023-08-30T05:31:38;11.75;;;4.47;;
21038;SDS011;10678;51.002;4.786;2023-08-30T05:34:03;10.40;;;4.43;;
21038;SDS011;10678;51.002;4.786;2023-08-30T05:36:29;13.35;;;4.65;;
21038;SDS011;10678;51.002;4.786;2023-08-30T05:38:55;13.45;;;4.65;;
21038;SDS011;10678;51.002;4.786;2023-08-30T05:41:20;9.43;;;3.83;;
21038;SDS011;10678;51.002;4.786;2023-08-30T05:43:46;9.38;;;4.40;;
21038;SDS011;10678;51.002;4.786;2023-08-30T05:46:11;9.25;;;3.63;;
21038;SDS011;10678;51.002;4.786;2023-08-30T05:48:40;8.82;;;4.00;;
21038;SDS011;10678;51.002;4.786;2023-08-30T05:51:05;9.32;;;3.88;;
21038;SDS011;10678;51.002;4.786;2023-08-30T05:53:31;9.13;;;4.38;;
21038;SDS011;10678;51.002;4.786;2023-08-30T05:55:56;9.32;;;3.90;;
21038;SDS011;10678;51.002;4.786;2023-08-30T05:58:22;9.80;;;4.05;;
21038;SDS011;10678;51.002;4.786;2023-08-30T06:00:48;9.02;;;3.40;;
21038;SDS011;10678;51.002;4.786;2023-08-30T06:03:13;9.68;;;3.55;;
21038;SDS011;10678;51.002;4.786;2023-08-30T06:05:39;8.15;;;3.28;;
21038;SDS011;10678;51.002;4.786;2023-08-30T06:08:04;9.23;;;3.20;;
21038;SDS011;10678;51.002;4.786;2023-08-30T06:10:30;7.68;;;3.25;;
21038;SDS011;10678;51.002;4.786;2023-08-30T06:12:56;6.75;;;2.97;;
21038;SDS011;10678;51.002;4.786;2023-08-30T06:15:22;6.90;;;3.10;;
21038;SDS011;10678;51.002;4.786;2023-08-30T06:17:47;6.88;;;2.83;;
21038;SDS011;10678;51.002;4.786;2023-08-30T06:20:13;6.25;;;3.03;;
21038;SDS011;10678;51.002;4.786;2023-08-30T06:22:39;8.55;;;2.50;;
21038;SDS011;10678;51.002;4.786;2023-08-30T06:25:07;7.00;;;2.60;;
21038;SDS011;10678;51.002;4.786;2023-08-30T06:27:33;8.45;;;2.53;;
21038;SDS011;10678;51.002;4.786;2023-08-30T06:30:01;7.55;;;2.55;;
21038;SDS011;10678;51.002;4.786;2023-08-30T06:32:28;7.45;;;2.95;;
21038;SDS011;10678;51.002;4.786;2023-08-30T06:34:54;7.03;;;2.30;;
21038;SDS011;10678;51.002;4.786;2023-08-30T06:37:19;6.22;;;2.47;;
21038;SDS011;10678;51.002;4.786;2023-08-30T06:39:45;7.07;;;2.45;;
21038;SDS011;10678;51.002;4.786;2023-08-30T06:42:11;5.70;;;2.40;;
21038;SDS011;10678;51.002;4.786;2023-08-30T06:44:36;5.30;;;2.38;;
21038;SDS011;10678;51.002;4.786;2023-08-30T06:47:02;9.52;;;2.55;;
21038;SDS011;10678;51.002;4.786;2023-08-30T06:49:28;5.80;;;2.17;;
21038;SDS011;10678;51.002;4.786;2023-08-30T06:51:56;5.55;;;2.28;;
21038;SDS011;10678;51.002;4.786;2023-08-30T06:54:22;9.05;;;2.92;;
21038;SDS011;10678;51.002;4.786;2023-08-30T06:56:57;7.50;;;2.38;;
21038;SDS011;10678;51.002;4.786;2023-08-30T06:59:23;4.85;;;1.95;;
21038;SDS011;10678;51.002;4.786;2023-08-30T07:01:49;7.18;;;2.50;;
21038;SDS011;10678;51.002;4.786;2023-08-30T07:04:14;6.90;;;2.50;;
21038;SDS011;10678;51.002;4.786;2023-08-30T07:06:40;8.20;;;2.40;;
21038;SDS011;10678;51.002;4.786;2023-08-30T07:09:06;7.13;;;2.38;;
21038;SDS011;10678;51.002;4.786;2023-08-30T07:11:32;6.78;;;2.80;;
21038;SDS011;10678;51.002;4.786;2023-08-30T07:13:57;6.18;;;2.53;;
21038;SDS011;10678;51.002;4.786;2023-08-30T07:16:23;7.72;;;2.50;;
21038;SDS011;10678;51.002;4.786;2023-08-30T07:18:48;4.03;;;2.00;;
21038;SDS011;10678;51.002;4.786;2023-08-30T07:21:15;7.22;;;2.60;;
21038;SDS011;10678;51.002;4.786;2023-08-30T07:23:40;5.57;;;2.58;;
21038;SDS011;10678;51.002;4.786;2023-08-30T07:26:06;9.10;;;2.45;;
21038;SDS011;10678;51.002;4.786;2023-08-30T07:28:31;7.97;;;2.80;;
21038;SDS011;10678;51.002;4.786;2023-08-30T07:31:01;6.93;;;3.30;;
21038;SDS011;10678;51.002;4.786;2023-08-30T07:33:28;14.05;;;3.28;;
21038;SDS011;10678;51.002;4.786;2023-08-30T07:35:54;9.07;;;4.18;;
21038;SDS011;10678;51.002;4.786;2023-08-30T07:38:19;8.13;;;3.03;;
21038;SDS011;10678;51.002;4.786;2023-08-30T07:40:45;8.80;;;3.22;;
21038;SDS011;10678;51.002;4.786;2023-08-30T07:43:11;8.02;;;3.13;;
21038;SDS011;10678;51.002;4.786;2023-08-30T07:45:36;7.15;;;3.00;;
21038;SDS011;10678;51.002;4.786;2023-08-30T07:48:02;8.68;;;3.85;;
21038;SDS011;10678;51.002;4.786;2023-08-30T07:50:28;7.22;;;3.55;;
21038;SDS011;10678;51.002;4.786;2023-08-30T07:52:53;7.55;;;3.08;;
21038;SDS011;10678;51.002;4.786;2023-08-30T07:55:19;7.55;;;2.83;;
21038;SDS011;10678;51.002;4.786;2023-08-30T07:57:44;7.85;;;3.40;;
21038;SDS011;10678;51.002;4.786;2023-08-30T08:00:11;6.45;;;2.92;;
21038;SDS011;10678;51.002;4.786;2023-08-30T08:02:37;5.88;;;2.58;;
21038;SDS011;10678;51.002;4.786;2023-08-30T08:05:02;6.60;;;2.80;;
21038;SDS011;10678;51.002;4.786;2023-08-30T08:07:28;5.95;;;2.90;;
21038;SDS011;10678;51.002;4.786;2023-08-30T08:09:54;7.10;;;2.80;;
21038;SDS011;10678;51.002;4.786;2023-08-30T08:12:20;8.60;;;3.03;;
21038;SDS011;10678;51.002;4.786;2023-08-30T08:14:46;7.82;;;2.50;;
21038;SDS011;10678;51.002;4.786;2023-08-30T08:17:11;8.90;;;2.40;;
21038;SDS011;10678;51.002;4.786;2023-08-30T08:19:37;6.05;;;2.67;;
21038;SDS011;10678;51.002;4.786;2023-08-30T08:22:04;5.18;;;2.42;;
21038;SDS011;10678;51.002;4.786;2023-08-30T08:24:31;5.78;;;3.00;;
21038;SDS011;10678;51.002;4.786;2023-08-30T08:26:57;7.15;;;2.28;;
21038;SDS011;10678;51.002;4.786;2023-08-30T08:29:23;5.85;;;2.50;;
21038;SDS011;10678;51.002;4.786;2023-08-30T08:31:48;5.60;;;2.95;;
21038;SDS011;10678;51.002;4.786;2023-08-30T08:34:14;6.60;;;2.65;;
21038;SDS011;10678;51.002;4.786;2023-08-30T08:36:40;8.35;;;2.88;;
21038;SDS011;10678;51.002;4.786;2023-08-30T08:39:07;5.38;;;2.50;;
21038;SDS011;10678;51.002;4.786;2023-08-30T08:41:40;5.28;;;2.40;;
21038;SDS011;10678;51.002;4.786;2023-08-30T08:44:07;5.63;;;2.58;;
21038;SDS011;10678;51.002;4.786;2023-08-30T08:46:37;7.85;;;2.80;;
21038;SDS011;10678;51.002;4.786;2023-08-30T08:49:13;6.53;;;2.63;;
21038;SDS011;10678;51.002;4.786;2023-08-30T08:51:40;7.35;;;2.35;;
21038;SDS011;10678;51.002;4.786;2023-08-30T08:54:10;4.60;;;2.15;;
21038;SDS011;10678;51.002;4.786;2023-08-30T08:56:37;5.40;;;2.45;;
21038;SDS011;10678;51.002;4.786;2023-08-30T08:59:03;4.85;;;2.42;;
21038;SDS011;10678;51.002;4.786;2023-08-30T09:01:33;4.63;;;2.13;;
21038;SDS011;10678;51.002;4.786;2023-08-30T09:04:09;6.45;;;2.22;;
21038;SDS011;10678;51.002;4.786;2023-08-30T09:06:36;4.50;;;2.08;;
21038;SDS011;10678;51.002;4.786;2023-08-30T09:09:03;4.28;;;1.90;;
21038;SDS011;10678;51.002;4.786;2023-08-30T09:11:29;4.75;;;2.08;;
21038;SDS011;10678;51.002;4.786;2023-08-30T09:13:55;4.93;;;2.28;;
21038;SDS011;10678;51.002;4.786;2023-08-30T09:16:21;5.82;;;2.33;;
21038;SDS011;10678;51.002;4.786;2023-08-30T09:18:59;4.68;;;1.95;;
21038;SDS011;10678;51.002;4.786;2023-08-30T09:21:25;5.13;;;2.30;;
21038;SDS011;10678;51.002;4.786;2023-08-30T09:23:58;7.40;;;1.90;;
21038;SDS011;10678;51.002;4.786;2023-08-30T09:26:28;5.03;;;2.15;;
21038;SDS011;10678;51.002;4.786;2023-08-30T09:29:00;4.28;;;1.65;;
21038;SDS011;10678;51.002;4.786;2023-08-30T09:31:32;4.38;;;1.85;;
21038;SDS011;10678;51.002;4.786;2023-08-30T09:34:02;11.35;;;1.88;;
21038;SDS011;10678;51.002;4.786;2023-08-30T09:36:37;4.93;;;1.90;;
21038;SDS011;10678;51.002;4.786;2023-08-30T09:39:08;4.50;;;2.05;;
21038;SDS011;10678;51.002;4.786;2023-08-30T09:41:41;4.57;;;2.00;;
21038;SDS011;10678;51.002;4.786;2023-08-30T09:44:10;4.75;;;2.17;;
21038;SDS011;10678;51.002;4.786;2023-08-30T09:46:41;6.05;;;2.85;;
21038;SDS011;10678;51.002;4.786;2023-08-30T09:49:07;5.75;;;2.30;;
21038;SDS011;10678;51.002;4.786;2023-08-30T09:51:34;5.03;;;2.60;;
21038;SDS011;10678;51.002;4.786;2023-08-30T09:54:03;5.25;;;2.72;;
21038;SDS011;10678;51.002;4.786;2023-08-30T09:56:30;5.78;;;2.42;;
21038;SDS011;10678;51.002;4.786;2023-08-30T09:58:58;9.13;;;3.13;;
21038;SDS011;10678;51.002;4.786;2023-08-30T10:01:27;9.00;;;3.63;;
21038;SDS011;10678;51.002;4.786;2023-08-30T10:03:54;5.47;;;3.00;;
21038;SDS011;10678;51.002;4.786;2023-08-30T10:06:21;5.57;;;2.92;;
21038;SDS011;10678;51.002;4.786;2023-08-30T10:08:49;8.00;;;3.08;;
21038;SDS011;10678;51.002;4.786;2023-08-30T10:11:17;5.82;;;2.80;;
21038;SDS011;10678;51.002;4.786;2023-08-30T10:13:43;5.65;;;3.00;;
21038;SDS011;10678;51.002;4.786;2023-08-30T10:16:12;5.90;;;3.00;;
21038;SDS011;10678;51.002;4.786;2023-08-30T10:18:47;5.78;;;3.20;;
21038;SDS011;10678;51.002;4.786;2023-08-30T10:21:18;6.72;;;3.35;;
21038;SDS011;10678;51.002;4.786;2023-08-30T10:23:45;6.65;;;3.35;;
21038;SDS011;10678;51.002;4.786;2023-08-30T10:26:14;7.53;;;3.65;;
21038;SDS011;10678;51.002;4.786;2023-08-30T10:28:41;5.78;;;3.17;;
21038;SDS011;10678;51.002;4.786;2023-08-30T10:31:08;7.10;;;3.38;;
21038;SDS011;10678;51.002;4.786;2023-08-30T10:33:46;7.07;;;3.53;;
21038;SDS011;10678;51.002;4.786;2023-08-30T10:36:25;7.93;;;3.28;;
21038;SDS011;10678;51.002;4.786;2023-08-30T10:38:54;8.15;;;3.55;;
21038;SDS011;10678;51.002;4.786;2023-08-30T10:41:26;7.50;;;3.55;;
21038;SDS011;10678;51.002;4.786;2023-08-30T10:43:52;6.43;;;3.42;;
21038;SDS011;10678;51.002;4.786;2023-08-30T10:46:30;6.68;;;3.33;;
21038;SDS011;10678;51.002;4.786;2023-08-30T10:49:07;6.45;;;3.20;;
21038;SDS011;10678;51.002;4.786;2023-08-30T10:51:36;6.32;;;3.60;;
21038;SDS011;10678;51.002;4.786;2023-08-30T10:59:16;9.13;;;4.47;;
21038;SDS011;10678;51.002;4.786;2023-08-30T11:01:46;8.40;;;4.05;;
21038;SDS011;10678;51.002;4.786;2023-08-30T11:04:14;6.50;;;3.63;;
21038;SDS011;10678;51.002;4.786;2023-08-30T11:06:42;8.15;;;4.00;;
21038;SDS011;10678;51.002;4.786;2023-08-30T11:09:13;7.63;;;4.10;;
21038;SDS011;10678;51.002;4.786;2023-08-30T11:11:40;8.30;;;4.35;;
21038;SDS011;10678;51.002;4.786;2023-08-30T11:14:09;9.20;;;4.50;;
21038;SDS011;10678;51.002;4.786;2023-08-30T11:16:35;7.85;;;4.28;;
21038;SDS011;10678;51.002;4.786;2023-08-30T11:19:02;6.40;;;3.92;;
21038;SDS011;10678;51.002;4.786;2023-08-30T11:21:29;8.10;;;4.30;;
21038;SDS011;10678;51.002;4.786;2023-08-30T11:23:56;7.78;;;4.20;;
21038;SDS011;10678;51.002;4.786;2023-08-30T11:26:22;9.02;;;4.07;;
21038;SDS011;10678;51.002;4.786;2023-08-30T11:28:48;7.07;;;3.90;;
21038;SDS011;10678;51.002;4.786;2023-08-30T11:31:20;7.35;;;3.85;;
21038;SDS011;10678;51.002;4.786;2023-08-30T11:33:56;6.97;;;4.25;;
21038;SDS011;10678;51.002;4.786;2023-08-30T11:36:26;6.60;;;3.78;;
21038;SDS011;10678;51.002;4.786;2023-08-30T11:38:53;7.05;;;4.20;;
21038;SDS011;10678;51.002;4.786;2023-08-30T11:41:22;6.72;;;3.75;;
21038;SDS011;10678;51.002;4.786;2023-08-30T11:43:51;7.28;;;4.47;;
21038;SDS011;10678;51.002;4.786;2023-08-30T11:46:18;9.07;;;4.50;;
21038;SDS011;10678;51.002;4.786;2023-08-30T11:48:45;10.07;;;4.40;;
21038;SDS011;10678;51.002;4.786;2023-08-30T11:51:12;7.22;;;4.15;;
21038;SDS011;10678;51.002;4.786;2023-08-30T11:53:38;8.43;;;4.28;;
21038;SDS011;10678;51.002;4.786;2023-08-30T11:56:05;5.72;;;3.10;;
21038;SDS011;10678;51.002;4.786;2023-08-30T11:58:34;6.55;;;3.20;;
21038;SDS011;10678;51.002;4.786;2023-08-30T12:01:01;9.40;;;3.50;;
21038;SDS011;10678;51.002;4.786;2023-08-30T12:03:28;10.95;;;3.83;;
21038;SDS011;10678;51.002;4.786;2023-08-30T12:05:54;7.60;;;3.42;;
21038;SDS011;10678;51.002;4.786;2023-08-30T12:08:21;10.27;;;3.10;;
21038;SDS011;10678;51.002;4.786;2023-08-30T12:10:49;6.57;;;2.60;;
21038;SDS011;10678;51.002;4.786;2023-08-30T12:16:16;6.72;;;2.75;;
21038;SDS011;10678;51.002;4.786;2023-08-30T12:18:43;8.65;;;3.10;;
21038;SDS011;10678;51.002;4.786;2023-08-30T12:21:09;7.88;;;2.25;;
21038;SDS011;10678;51.002;4.786;2023-08-30T12:23:34;11.38;;;2.50;;
21038;SDS011;10678;51.002;4.786;2023-08-30T12:26:01;9.00;;;2.00;;
21038;SDS011;10678;51.002;4.786;2023-08-30T12:28:31;8.25;;;2.88;;
21038;SDS011;10678;51.002;4.786;2023-08-30T12:30:58;11.13;;;2.17;;
21038;SDS011;10678;51.002;4.786;2023-08-30T12:33:24;11.00;;;2.33;;
21038;SDS011;10678;51.002;4.786;2023-08-30T12:35:53;12.25;;;2.53;;
21038;SDS011;10678;51.002;4.786;2023-08-30T12:38:19;11.07;;;2.10;;
21038;SDS011;10678;51.002;4.786;2023-08-30T12:40:49;9.07;;;2.17;;
21038;SDS011;10678;51.002;4.786;2023-08-30T12:43:17;8.63;;;2.33;;
21038;SDS011;10678;51.002;4.786;2023-08-30T12:45:43;10.73;;;2.35;;
21038;SDS011;10678;51.002;4.786;2023-08-30T12:48:11;8.30;;;1.92;;
21038;SDS011;10678;51.002;4.786;2023-08-30T12:50:39;5.65;;;1.80;;
21038;SDS011;10678;51.002;4.786;2023-08-30T12:53:05;6.65;;;1.75;;
21038;SDS011;10678;51.002;4.786;2023-08-30T12:55:31;7.95;;;1.95;;
21038;SDS011;10678;51.002;4.786;2023-08-30T12:57:57;11.25;;;1.98;;
21038;SDS011;10678;51.002;4.786;2023-08-30T13:00:23;6.05;;;2.15;;
21038;SDS011;10678;51.002;4.786;2023-08-30T13:02:49;11.18;;;2.00;;
21038;SDS011;10678;51.002;4.786;2023-08-30T13:05:15;8.68;;;1.88;;
21038;SDS011;10678;51.002;4.786;2023-08-30T13:07:40;6.63;;;2.00;;
21038;SDS011;10678;51.002;4.786;2023-08-30T13:10:07;7.18;;;1.60;;
21038;SDS011;10678;51.002;4.786;2023-08-30T13:12:33;8.13;;;2.25;;
21038;SDS011;10678;51.002;4.786;2023-08-30T13:14:59;10.32;;;2.08;;
21038;SDS011;10678;51.002;4.786;2023-08-30T13:17:25;5.82;;;1.45;;
21038;SDS011;10678;51.002;4.786;2023-08-30T13:19:50;8.98;;;1.77;;
21038;SDS011;10678;51.002;4.786;2023-08-30T13:22:16;8.02;;;2.13;;
21038;SDS011;10678;51.002;4.786;2023-08-30T13:24:42;8.65;;;1.55;;
21038;SDS011;10678;51.002;4.786;2023-08-30T13:27:09;7.50;;;1.75;;
21038;SDS011;10678;51.002;4.786;2023-08-30T13:29:35;6.80;;;1.63;;
21038;SDS011;10678;51.002;4.786;2023-08-30T13:32:01;6.43;;;1.75;;
21038;SDS011;10678;51.002;4.786;2023-08-30T13:34:26;4.95;;;1.30;;
21038;SDS011;10678;51.002;4.786;2023-08-30T13:36:52;7.80;;;1.55;;
21038;SDS011;10678;51.002;4.786;2023-08-30T13:39:17;7.90;;;1.30;;
21038;SDS011;10678;51.002;4.786;2023-08-30T13:41:45;4.80;;;0.98;;
21038;SDS011;10678;51.002;4.786;2023-08-30T13:44:11;4.65;;;0.93;;
21038;SDS011;10678;51.002;4.786;2023-08-30T13:46:37;9.90;;;1.90;;
21038;SDS011;10678;51.002;4.786;2023-08-30T13:49:03;7.35;;;1.38;;
21038;SDS011;10678;51.002;4.786;2023-08-30T13:51:29;5.70;;;1.40;;
21038;SDS011;10678;51.002;4.786;2023-08-30T13:53:55;7.68;;;1.30;;
21038;SDS011;10678;51.002;4.786;2023-08-30T13:56:22;7.88;;;1.65;;
21038;SDS011;10678;51.002;4.786;2023-08-30T13:58:48;5.90;;;1.10;;
21038;SDS011;10678;51.002;4.786;2023-08-30T14:01:14;9.00;;;1.15;;
21038;SDS011;10678;51.002;4.786;2023-08-30T14:03:41;4.53;;;1.30;;
21038;SDS011;10678;51.002;4.786;2023-08-30T14:06:07;4.65;;;0.90;;
21038;SDS011;10678;51.002;4.786;2023-08-30T14:08:33;4.88;;;1.30;;
21038;SDS011;10678;51.002;4.786;2023-08-30T14:10:59;9.45;;;1.20;;
21038;SDS011;10678;51.002;4.786;2023-08-30T14:13:24;5.10;;;1.17;;
21038;SDS011;10678;51.002;4.786;2023-08-30T14:15:50;6.50;;;1.30;;
21038;SDS011;10678;51.002;4.786;2023-08-30T14:18:16;6.47;;;1.52;;
21038;SDS011;10678;51.002;4.786;2023-08-30T14:20:42;10.18;;;1.67;;
21038;SDS011;10678;51.002;4.786;2023-08-30T14:23:08;8.45;;;1.30;;
21038;SDS011;10678;51.002;4.786;2023-08-30T14:25:35;6.35;;;1.23;;
21038;SDS011;10678;51.002;4.786;2023-08-30T14:28:01;8.70;;;1.48;;
21038;SDS011;10678;51.002;4.786;2023-08-30T14:30:27;8.23;;;1.15;;
21038;SDS011;10678;51.002;4.786;2023-08-30T14:32:53;5.03;;;1.15;;
21038;SDS011;10678;51.002;4.786;2023-08-30T14:35:18;4.88;;;0.93;;
21038;SDS011;10678;51.002;4.786;2023-08-30T14:37:49;7.15;;;1.05;;
21038;SDS011;10678;51.002;4.786;2023-08-30T14:40:15;6.85;;;1.10;;
21038;SDS011;10678;51.002;4.786;2023-08-30T14:42:41;5.80;;;1.05;;
21038;SDS011;10678;51.002;4.786;2023-08-30T14:45:07;9.40;;;1.38;;
21038;SDS011;10678;51.002;4.786;2023-08-30T14:47:33;5.57;;;1.25;;
21038;SDS011;10678;51.002;4.786;2023-08-30T14:49:59;6.93;;;1.17;;
21038;SDS011;10678;51.002;4.786;2023-08-30T14:52:29;7.68;;;1.10;;
21038;SDS011;10678;51.002;4.786;2023-08-30T14:54:55;6.95;;;1.20;;
21038;SDS011;10678;51.002;4.786;2023-08-30T14:57:20;5.32;;;1.02;;